Time;durP1;ratioP1;P1;durP2;ratioP2;P2;SDS_P1;SDS_P2;PMS_P1;PMS_P2;Temp;Humidity;BMP_temperature;BMP_pressure;BME280_temperature;BME280_humidity;BME280_pressure;Samples;Min_cycle;Max_cycle;Signal;HPM_P1;HPM_P2
2021/09/02 00:02:20;;;;;;;16.08;10.02;;;;;;;16.49;100.00;102708.31;5177878;28;20042;-67
2021/09/02 00:04:52;;;;;;;16.50;10.40;;;;;;;16.53;100.00;102708.91;5170761;28;20436;-68
2021/09/02 00:07:23;;;;;;;15.93;10.30;;;;;;;16.51;100.00;102709.00;5175698;28;20532;-67
2021/09/02 00:09:54;;;;;;;13.35;9.75;;;;;;;16.50;100.00;102709.97;5174593;28;20035;-68
2021/09/02 00:12:26;;;;;;;16.20;10.05;;;;;;;16.49;100.00;102708.31;5174446;28;20030;-67
2021/09/02 00:14:57;;;;;;;14.90;9.50;;;;;;;16.50;100.00;102704.69;5171895;28;20027;-67
2021/09/02 00:17:28;;;;;;;15.73;9.40;;;;;;;16.46;100.00;102710.38;5177134;28;20030;-67
2021/09/02 00:20:00;;;;;;;14.57;9.45;;;;;;;16.50;100.00;102711.78;5170733;28;20038;-67
2021/09/02 00:22:31;;;;;;;15.18;9.85;;;;;;;16.48;100.00;102704.00;5171999;28;20022;-67
2021/09/02 00:25:03;;;;;;;19.42;10.45;;;;;;;16.49;100.00;102715.41;5175873;28;20078;-67
2021/09/02 00:27:34;;;;;;;13.57;9.73;;;;;;;16.44;100.00;102694.63;5177742;28;20234;-67
2021/09/02 00:30:07;;;;;;;17.73;10.90;;;;;;;16.49;100.00;102700.38;5174763;28;20333;-67
2021/09/02 00:32:38;;;;;;;15.90;10.23;;;;;;;16.47;100.00;102693.50;5183374;28;20498;-67
2021/09/02 00:35:10;;;;;;;12.15;10.10;;;;;;;16.45;100.00;102691.00;5176110;28;20031;-67
2021/09/02 00:37:41;;;;;;;15.40;9.85;;;;;;;16.46;100.00;102691.84;5173327;28;20029;-67
2021/09/02 00:40:13;;;;;;;16.15;10.32;;;;;;;16.44;100.00;102688.47;5161752;28;20148;-67
2021/09/02 00:42:44;;;;;;;13.88;10.65;;;;;;;16.41;100.00;102686.94;5172238;28;20050;-67
2021/09/02 00:45:15;;;;;;;15.05;10.50;;;;;;;16.39;100.00;102695.94;5167503;28;20425;-67
2021/09/02 00:47:46;;;;;;;16.27;11.02;;;;;;;16.35;100.00;102686.56;5171849;28;20126;-67
2021/09/02 00:50:18;;;;;;;19.65;10.40;;;;;;;16.39;100.00;102685.34;5176473;28;20058;-67
2021/09/02 00:52:50;;;;;;;15.05;10.88;;;;;;;16.38;100.00;102687.16;5174220;28;20027;-67
2021/09/02 00:55:21;;;;;;;18.15;11.63;;;;;;;16.40;100.00;102693.19;5174245;28;20053;-67
2021/09/02 00:57:53;;;;;;;16.92;11.02;;;;;;;16.38;100.00;102686.34;5176860;28;20030;-68
2021/09/02 01:00:24;;;;;;;13.93;9.98;;;;;;;16.34;100.00;102690.19;5173817;28;20031;-67
2021/09/02 01:02:55;;;;;;;13.88;9.95;;;;;;;16.36;100.00;102686.44;5174232;28;20493;-67
2021/09/02 01:05:27;;;;;;;17.42;10.48;;;;;;;16.33;100.00;102684.06;5172742;28;20023;-67
2021/09/02 01:08:00;;;;;;;19.17;10.85;;;;;;;16.36;100.00;102688.25;5171059;28;20031;-67
2021/09/02 01:10:31;;;;;;;;;;;;;;;16.69;100.00;102696.09;5163935;28;20023;-67
2021/09/02 01:13:03;;;;;;;15.38;10.80;;;;;;;16.33;100.00;102691.13;5163791;28;19910;-67
2021/09/02 01:15:34;;;;;;;15.33;11.00;;;;;;;16.39;100.00;102690.66;5168996;28;20073;-67
2021/09/02 01:18:06;;;;;;;14.85;11.02;;;;;;;16.32;100.00;102695.59;5165997;28;20326;-67
2021/09/02 01:20:37;;;;;;;18.52;11.88;;;;;;;16.26;100.00;102693.44;5171634;28;20046;-67
2021/09/02 01:23:09;;;;;;;14.38;10.65;;;;;;;16.28;100.00;102692.34;5171488;28;20026;-67
2021/09/02 01:25:42;;;;;;;17.38;11.50;;;;;;;16.29;100.00;102690.56;5172695;28;20023;-67
2021/09/02 01:28:14;;;;;;;18.05;12.15;;;;;;;16.24;100.00;102690.91;5165398;28;20090;-67
2021/09/02 01:30:45;;;;;;;16.17;11.75;;;;;;;16.27;100.00;102695.94;5176217;28;20477;-67
2021/09/02 01:33:17;;;;;;;18.30;12.07;;;;;;;16.28;100.00;102687.06;5176072;28;20782;-67
2021/09/02 01:35:48;;;;;;;18.92;12.18;;;;;;;16.26;100.00;102688.16;5167565;28;20469;-67
2021/09/02 01:38:19;;;;;;;14.85;11.45;;;;;;;16.27;100.00;102687.19;5175507;28;20025;-67
2021/09/02 01:40:51;;;;;;;15.98;12.32;;;;;;;16.25;100.00;102691.75;5171826;28;20029;-67
2021/09/02 01:43:23;;;;;;;21.45;13.30;;;;;;;16.27;100.00;102695.94;5166368;28;20035;-67
2021/09/02 01:45:54;;;;;;;17.05;12.27;;;;;;;16.25;100.00;102689.97;5173084;28;20031;-67
2021/09/02 01:48:25;;;;;;;21.13;12.32;;;;;;;16.24;100.00;102692.72;5174127;28;20045;-67
2021/09/02 01:50:57;;;;;;;15.23;11.80;;;;;;;16.27;100.00;102693.31;5168033;28;20035;-67
2021/09/02 01:53:28;;;;;;;16.35;12.40;;;;;;;16.25;100.00;102697.91;5165771;28;20039;-67
2021/09/02 01:56:00;;;;;;;15.07;12.32;;;;;;;16.23;100.00;102693.69;5166212;28;20191;-67
2021/09/02 01:58:31;;;;;;;21.48;12.93;;;;;;;16.23;100.00;102689.22;5177503;28;20568;-67
2021/09/02 02:01:03;;;;;;;17.83;12.63;;;;;;;16.18;100.00;102680.84;5171566;28;20019;-67
2021/09/02 02:03:34;;;;;;;16.10;12.75;;;;;;;16.21;100.00;102677.09;5168364;28;20599;-67
2021/09/02 02:06:05;;;;;;;15.80;12.93;;;;;;;16.20;100.00;102678.88;5174891;28;20119;-67
2021/09/02 02:08:37;;;;;;;18.80;13.15;;;;;;;16.20;100.00;102675.41;5172205;28;20069;-67
2021/09/02 02:11:08;;;;;;;17.63;13.10;;;;;;;16.24;100.00;102679.50;5164884;28;20031;-67
2021/09/02 02:13:39;;;;;;;21.48;13.25;;;;;;;16.24;100.00;102680.31;5163057;28;20027;-67
2021/09/02 02:16:10;;;;;;;21.30;13.55;;;;;;;16.22;100.00;102686.72;5175631;28;20045;-67
2021/09/02 02:18:42;;;;;;;19.52;13.80;;;;;;;16.21;100.00;102687.66;5171935;28;20027;-67
2021/09/02 02:21:13;;;;;;;18.05;13.98;;;;;;;16.20;100.00;102681.53;5167939;28;20066;-67
2021/09/02 02:23:44;;;;;;;21.05;15.07;;;;;;;16.17;100.00;102675.66;5169547;28;20030;-67
2021/09/02 02:26:15;;;;;;;19.88;14.00;;;;;;;16.21;100.00;102685.00;5172022;28;20029;-67
2021/09/02 02:28:47;;;;;;;20.83;14.90;;;;;;;16.19;100.00;102677.22;5168665;28;20022;-67
2021/09/02 02:31:18;;;;;;;16.67;13.60;;;;;;;16.16;100.00;102682.75;5165611;28;20102;-68
2021/09/02 02:33:49;;;;;;;18.77;14.10;;;;;;;16.14;100.00;102679.41;5173051;28;20045;-67
2021/09/02 02:36:21;;;;;;;18.90;14.30;;;;;;;16.12;100.00;102677.81;5175336;28;20030;-67
2021/09/02 02:38:52;;;;;;;22.20;14.68;;;;;;;16.08;100.00;102671.09;5162037;28;20059;-67
2021/09/02 02:41:24;;;;;;;19.33;14.13;;;;;;;16.07;100.00;102672.91;5176441;28;20507;-67
2021/09/02 02:43:55;;;;;;;19.48;14.13;;;;;;;16.08;100.00;102673.75;5171307;28;20035;-67
2021/09/02 02:46:26;;;;;;;19.63;14.88;;;;;;;16.09;100.00;102678.06;5170830;28;20031;-67
2021/09/02 02:48:58;;;;;;;18.95;14.60;;;;;;;16.07;100.00;102674.72;5161235;28;20055;-68
2021/09/02 02:51:29;;;;;;;18.65;14.38;;;;;;;16.10;100.00;102667.38;5169265;28;20026;-67
2021/09/02 02:54:01;;;;;;;18.85;14.25;;;;;;;16.08;100.00;102673.75;5174519;28;20023;-67
2021/09/02 02:56:35;;;;;;;19.90;14.97;;;;;;;16.10;100.00;102666.50;5174321;28;20029;-67
2021/09/02 02:59:07;;;;;;;20.55;14.57;;;;;;;16.03;100.00;102666.19;5168210;28;20035;-67
2021/09/02 03:01:38;;;;;;;20.50;13.68;;;;;;;16.03;100.00;102668.81;5171016;28;20507;-67
2021/09/02 03:04:09;;;;;;;21.40;15.13;;;;;;;16.03;100.00;102667.03;5165929;28;20059;-67
2021/09/02 03:06:41;;;;;;;22.63;14.60;;;;;;;16.01;100.00;102668.94;5176817;28;20052;-67
2021/09/02 03:09:12;;;;;;;17.23;14.10;;;;;;;16.05;100.00;102664.25;5172181;28;20319;-67
2021/09/02 03:11:43;;;;;;;21.92;14.68;;;;;;;16.00;100.00;102661.13;5173174;28;20031;-67
2021/09/02 03:14:15;;;;;;;19.25;14.82;;;;;;;16.00;100.00;102661.97;5167381;28;20061;-67
2021/09/02 03:16:46;;;;;;;21.85;14.93;;;;;;;15.99;100.00;102665.59;5173117;28;20041;-67
2021/09/02 03:19:17;;;;;;;23.27;16.00;;;;;;;16.00;100.00;102654.03;5179059;28;20363;-69
2021/09/02 03:21:48;;;;;;;18.35;14.07;;;;;;;16.02;100.00;102662.69;5178243;28;20026;-68
2021/09/02 03:24:20;;;;;;;18.52;14.10;;;;;;;16.03;100.00;102667.03;5181437;28;20047;-68
2021/09/02 03:26:51;;;;;;;19.88;14.85;;;;;;;16.00;100.00;102675.19;5175711;28;20381;-68
2021/09/02 03:29:22;;;;;;;20.42;14.73;;;;;;;15.97;100.00;102666.66;5178160;28;20043;-68
2021/09/02 03:31:54;;;;;;;20.67;14.57;;;;;;;15.99;100.00;102670.03;5172668;28;20477;-68
2021/09/02 03:34:25;;;;;;;18.85;14.20;;;;;;;16.01;100.00;102668.94;5179226;28;20062;-68
2021/09/02 03:36:56;;;;;;;18.98;14.18;;;;;;;15.94;100.00;102665.09;5177866;28;20102;-68
2021/09/02 03:39:27;;;;;;;16.48;13.57;;;;;;;15.94;100.00;102672.19;5178895;28;20863;-69
2021/09/02 03:41:59;;;;;;;20.95;13.55;;;;;;;15.96;100.00;102667.63;5166104;28;20113;-68
2021/09/02 03:44:30;;;;;;;18.23;14.40;;;;;;;15.97;100.00;102670.13;5171334;28;20022;-68
2021/09/02 03:47:01;;;;;;;19.88;14.60;;;;;;;15.98;100.00;102669.16;5175062;28;20023;-67
2021/09/02 03:49:33;;;;;;;20.90;14.52;;;;;;;15.92;100.00;102666.19;5175111;28;20045;-68
2021/09/02 03:52:06;;;;;;;18.98;13.10;;;;;;;15.90;100.00;102660.16;5159432;28;20061;-68
2021/09/02 03:54:37;;;;;;;20.42;13.32;;;;;;;15.93;100.00;102658.13;5167097;28;20023;-68
2021/09/02 03:57:08;;;;;;;17.58;13.52;;;;;;;15.91;100.00;102651.25;5168531;28;20019;-68
2021/09/02 03:59:40;;;;;;;19.00;14.18;;;;;;;15.91;100.00;102656.56;5171548;28;20120;-67
2021/09/02 04:02:11;;;;;;;18.63;14.35;;;;;;;15.90;100.00;102654.88;5165395;28;20031;-68
2021/09/02 04:04:42;;;;;;;17.38;13.18;;;;;;;15.92;100.00;102647.69;5171693;28;20026;-67
2021/09/02 04:07:13;;;;;;;16.10;13.10;;;;;;;15.87;100.00;102649.84;5179556;28;20031;-68
2021/09/02 04:09:45;;;;;;;19.45;13.63;;;;;;;15.79;100.00;102645.16;5172111;28;20034;-68
2021/09/02 04:12:16;;;;;;;20.27;13.90;;;;;;;15.79;100.00;102639.84;5166814;28;20058;-68
2021/09/02 04:14:47;;;;;;;16.85;13.60;;;;;;;15.78;100.00;102635.53;5171262;28;20278;-68
2021/09/02 04:17:18;;;;;;;16.60;13.05;;;;;;;15.73;100.00;102640.34;5171847;28;20114;-67
2021/09/02 04:19:50;;;;;;;14.45;12.90;;;;;;;15.67;100.00;102636.38;5171918;28;20034;-69
2021/09/02 04:22:21;;;;;;;20.38;14.05;;;;;;;15.67;100.00;102635.53;5169942;28;20059;-68
2021/09/02 04:24:52;;;;;;;16.85;13.50;;;;;;;15.65;100.00;102629.53;5171213;28;20120;-68
2021/09/02 04:27:24;;;;;;;17.80;12.57;;;;;;;15.60;100.00;102637.78;5173831;28;20038;-68
2021/09/02 04:29:55;;;;;;;19.38;13.02;;;;;;;15.57;100.00;102648.59;5161593;28;20035;-67
2021/09/02 04:32:26;;;;;;;21.00;13.68;;;;;;;15.58;100.00;102650.28;5176228;28;20034;-68
2021/09/02 04:34:57;;;;;;;17.67;12.43;;;;;;;15.57;100.00;102648.59;5168615;28;20055;-68
2021/09/02 04:37:29;;;;;;;16.00;12.35;;;;;;;15.44;100.00;102647.84;5167755;28;20026;-68
2021/09/02 04:40:00;;;;;;;16.55;12.65;;;;;;;15.48;100.00;102646.66;5165910;28;20418;-68
2021/09/02 04:42:31;;;;;;;16.63;12.18;;;;;;;15.42;100.00;102640.06;5173013;28;20049;-68
2021/09/02 04:45:04;;;;;;;18.63;12.85;;;;;;;15.41;100.00;102651.56;5177932;28;20034;-68
2021/09/02 04:47:36;;;;;;;18.13;12.40;;;;;;;15.37;100.00;102650.13;5166098;28;20078;-67
2021/09/02 04:50:10;;;;;;;16.95;11.95;;;;;;;15.39;100.00;102650.03;5162880;28;20070;-69
2021/09/02 04:52:41;;;;;;;16.77;11.80;;;;;;;15.36;100.00;102652.88;5169671;28;20038;-68
2021/09/02 04:55:13;;;;;;;15.35;12.15;;;;;;;15.35;100.00;102646.78;5176205;28;20034;-68
2021/09/02 04:57:45;;;;;;;17.58;12.30;;;;;;;15.33;100.00;102649.50;5168337;28;20496;-68
2021/09/02 05:00:16;;;;;;;17.35;11.40;;;;;;;15.36;100.00;102643.16;5171454;28;20027;-69
2021/09/02 05:02:48;;;;;;;15.43;11.77;;;;;;;15.36;100.00;102639.69;5177336;28;20026;-68
2021/09/02 05:05:19;;;;;;;19.15;12.57;;;;;;;15.33;100.00;102632.84;5173403;28;20034;-68
2021/09/02 05:07:50;;;;;;;16.05;11.30;;;;;;;15.31;100.00;102640.03;5171346;28;20393;-68
2021/09/02 05:10:22;;;;;;;16.15;11.60;;;;;;;15.32;100.00;102636.44;5178153;28;20397;-68
2021/09/02 05:12:53;;;;;;;14.68;11.18;;;;;;;15.28;100.00;102627.91;5175941;28;20070;-68
2021/09/02 05:15:25;;;;;;;16.67;11.52;;;;;;;15.24;100.00;102634.38;5171695;28;20408;-68
2021/09/02 05:17:56;;;;;;;13.73;10.60;;;;;;;15.26;100.00;102629.81;5168285;28;20392;-69
2021/09/02 05:20:28;;;;;;;15.15;10.50;;;;;;;15.30;100.00;102633.06;5174869;28;20029;-67
2021/09/02 05:22:59;;;;;;;15.52;10.02;;;;;;;15.26;100.00;102634.25;5178759;28;20403;-68
2021/09/02 05:25:30;;;;;;;17.95;10.65;;;;;;;15.36;100.00;102632.59;5166934;28;20041;-68
2021/09/02 05:28:01;;;;;;;14.10;10.95;;;;;;;15.33;100.00;102633.66;5170338;28;20370;-67
2021/09/02 05:30:33;;;;;;;15.27;11.02;;;;;;;15.35;100.00;102638.00;5172065;28;20069;-69
2021/09/02 05:33:04;;;;;;;18.20;11.13;;;;;;;15.29;100.00;102634.88;5170890;28;20031;-68
2021/09/02 05:35:35;;;;;;;19.40;10.13;;;;;;;15.39;100.00;102645.56;5170277;28;20058;-68
2021/09/02 05:38:10;;;;;;;17.67;10.88;;;;;;;15.42;100.00;102649.75;5164773;28;20078;-69
2021/09/02 05:40:41;;;;;;;15.85;10.98;;;;;;;15.41;100.00;102648.09;5175083;28;20473;-69
2021/09/02 05:43:13;;;;;;;15.88;10.05;;;;;;;15.46;100.00;102651.25;5166207;28;20042;-68
2021/09/02 05:45:44;;;;;;;15.57;10.25;;;;;;;15.47;100.00;102652.91;5172723;28;20026;-68
2021/09/02 05:48:16;;;;;;;16.45;10.65;;;;;;;15.47;100.00;102642.34;5168857;28;20054;-67
2021/09/02 05:50:47;;;;;;;16.33;10.45;;;;;;;15.50;100.00;102648.22;5169678;28;20114;-68
2021/09/02 05:53:20;;;;;;;19.95;11.25;;;;;;;15.52;100.00;102650.75;5166614;28;20445;-69
2021/09/02 05:55:51;;;;;;;14.65;10.65;;;;;;;15.51;100.00;102651.72;5171510;28;20027;-67
2021/09/02 05:58:22;;;;;;;17.58;11.65;;;;;;;15.55;100.00;102653.16;5167632;28;20527;-69
2021/09/02 06:00:54;;;;;;;15.80;11.88;;;;;;;15.61;100.00;102659.75;5172827;28;20367;-68
2021/09/02 06:03:27;;;;;;;17.60;12.17;;;;;;;15.62;100.00;102654.38;5163154;28;20034;-67
2021/09/02 06:05:59;;;;;;;15.57;11.23;;;;;;;15.64;100.00;102664.81;5175315;28;20364;-69
2021/09/02 06:08:30;;;;;;;18.40;12.40;;;;;;;15.64;100.00;102656.88;5153547;28;20450;-66
2021/09/02 06:11:03;;;;;;;14.82;11.82;;;;;;;15.68;100.00;102661.88;5158454;28;20027;-66
2021/09/02 06:13:34;;;;;;;17.25;11.65;;;;;;;15.70;100.00;102662.56;5155074;28;20445;-67
2021/09/02 06:16:05;;;;;;;16.48;12.57;;;;;;;15.73;100.00;102656.22;5150309;28;20023;-66
2021/09/02 06:18:37;;;;;;;16.33;11.63;;;;;;;15.73;100.00;102659.69;5146750;28;20045;-67
2021/09/02 06:21:08;;;;;;;17.38;12.25;;;;;;;15.79;100.00;102658.34;5160456;28;20477;-67
2021/09/02 06:23:40;;;;;;;17.70;13.13;;;;;;;15.77;100.00;102655.84;5180252;28;20027;-69
2021/09/02 06:26:11;;;;;;;19.45;12.15;;;;;;;15.76;100.00;102653.34;5157514;28;20470;-68
2021/09/02 06:28:42;;;;;;;21.63;13.27;;;;;;;15.78;100.00;102657.53;5160684;28;20023;-68
2021/09/02 06:31:14;;;;;;;17.80;13.20;;;;;;;15.84;100.00;102660.66;5158003;28;20023;-69
2021/09/02 06:33:45;;;;;;;16.55;12.90;;;;;;;15.91;100.00;102654.78;5160317;28;20520;-68
2021/09/02 06:36:19;;;;;;;20.05;14.05;;;;;;;15.93;100.00;102659.94;5158692;28;20075;-69
2021/09/02 06:38:50;;;;;;;20.02;13.40;;;;;;;15.96;100.00;102668.47;5158043;28;20105;-68
2021/09/02 06:41:21;;;;;;;16.00;12.27;;;;;;;16.01;100.00;102663.66;5165112;28;20062;-68
2021/09/02 06:43:53;;;;;;;21.53;13.90;;;;;;;16.08;100.00;102668.47;5157647;28;20048;-68
2021/09/02 06:46:24;;;;;;;18.77;14.20;;;;;;;16.14;100.00;102667.94;5161053;28;20294;-68
2021/09/02 06:48:55;;;;;;;18.48;13.20;;;;;;;16.20;100.00;102663.03;5161357;28;20054;-67
2021/09/02 06:51:27;;;;;;;16.55;12.73;;;;;;;16.29;100.00;102675.53;5166067;28;20046;-68
2021/09/02 06:53:58;;;;;;;19.00;12.60;;;;;;;16.30;100.00;102665.78;5159268;28;20381;-68
2021/09/02 06:56:29;;;;;;;20.77;12.77;;;;;;;16.34;100.00;102664.56;5160734;28;20060;-67
2021/09/02 06:59:00;;;;;;;16.17;12.83;;;;;;;16.47;100.00;102673.19;5156436;28;20697;-68
2021/09/02 07:01:32;;;;;;;26.92;13.57;;;;;;;16.49;100.00;102667.78;5159932;28;20661;-68
2021/09/02 07:04:03;;;;;;;17.85;11.77;;;;;;;16.53;100.00;102669.22;5160387;28;20023;-68
2021/09/02 07:06:34;;;;;;;19.67;12.52;;;;;;;16.57;100.00;102668.00;5159845;28;20060;-68
2021/09/02 07:09:06;;;;;;;16.33;11.77;;;;;;;16.54;100.00;102670.88;5152977;28;20344;-68
2021/09/02 07:11:37;;;;;;;16.58;11.18;;;;;;;16.61;100.00;102674.72;5153929;28;20998;-68
2021/09/02 07:14:08;;;;;;;23.45;12.23;;;;;;;16.61;100.00;102676.53;5161531;28;20489;-68
2021/09/02 07:16:40;;;;;;;21.05;12.73;;;;;;;16.67;100.00;102676.88;5157679;28;20626;-68
2021/09/02 07:19:11;;;;;;;18.58;12.10;;;;;;;16.71;100.00;102674.81;5161959;28;20035;-67
2021/09/02 07:21:42;;;;;;;20.27;11.80;;;;;;;16.76;100.00;102664.72;5168044;28;20041;-68
2021/09/02 07:24:13;;;;;;;17.90;11.48;;;;;;;16.79;100.00;102672.41;5168672;28;20030;-68
2021/09/02 07:26:45;;;;;;;19.00;12.48;;;;;;;16.88;100.00;102673.47;5170964;28;20038;-68
2021/09/02 07:29:16;;;;;;;22.67;13.05;;;;;;;16.89;100.00;102683.06;5168095;28;20023;-68
2021/09/02 07:31:48;;;;;;;16.17;11.75;;;;;;;16.91;100.00;102678.50;5173118;28;20103;-68
2021/09/02 07:34:19;;;;;;;26.92;13.32;;;;;;;16.98;100.00;102690.28;5170053;28;20049;-68
2021/09/02 07:36:50;;;;;;;21.05;12.25;;;;;;;17.09;100.00;102695.53;5170387;28;20029;-68
2021/09/02 07:39:22;;;;;;;19.58;13.10;;;;;;;17.14;100.00;102688.03;5165366;28;20105;-69
2021/09/02 07:41:53;;;;;;;18.38;12.68;;;;;;;17.24;100.00;102682.81;5167026;28;20027;-69
2021/09/02 07:44:24;;;;;;;19.08;12.27;;;;;;;17.40;100.00;102683.19;5155761;28;20043;-69
2021/09/02 07:46:56;;;;;;;22.48;13.48;;;;;;;17.37;100.00;102679.94;5161458;28;20486;-68
2021/09/02 07:49:27;;;;;;;19.60;12.70;;;;;;;17.42;100.00;102683.03;5162408;28;20516;-68
2021/09/02 07:51:58;;;;;;;20.20;12.10;;;;;;;17.54;100.00;102678.50;5155631;28;20019;-68
2021/09/02 07:54:29;;;;;;;19.88;11.10;;;;;;;17.64;100.00;102682.06;5154631;28;20034;-68
2021/09/02 07:57:01;;;;;;;19.17;12.07;;;;;;;17.77;100.00;102676.56;5156934;28;20034;-69
2021/09/02 07:59:32;;;;;;;18.08;12.52;;;;;;;17.78;100.00;102680.91;5158700;28;20084;-68
2021/09/02 08:02:04;;;;;;;17.08;10.98;;;;;;;17.91;100.00;102677.03;5169252;28;20027;-68
2021/09/02 08:04:35;;;;;;;16.43;11.33;;;;;;;17.90;100.00;102682.50;5163882;28;20019;-68
2021/09/02 08:07:06;;;;;;;18.73;11.38;;;;;;;17.92;100.00;102684.06;5167145;28;20027;-68
2021/09/02 08:09:38;;;;;;;18.17;10.63;;;;;;;17.97;100.00;102686.28;5167495;28;20225;-68
2021/09/02 08:12:09;;;;;;;20.98;12.25;;;;;;;17.95;100.00;102683.75;5173007;28;20128;-68
2021/09/02 08:14:40;;;;;;;17.30;10.88;;;;;;;17.97;100.00;102683.66;5161077;28;20058;-69
2021/09/02 08:17:11;;;;;;;15.07;9.70;;;;;;;17.88;100.00;102685.28;5163941;28;20020;-69
2021/09/02 08:19:43;;;;;;;18.15;10.98;;;;;;;18.02;100.00;102681.41;5171250;28;20485;-69
2021/09/02 08:22:14;;;;;;;16.83;10.15;;;;;;;18.11;100.00;102675.31;5163385;28;20118;-68
2021/09/02 08:24:45;;;;;;;14.38;8.98;;;;;;;18.27;100.00;102677.47;5159170;28;20034;-68
2021/09/02 08:27:16;;;;;;;14.43;7.53;;;;;;;18.36;100.00;102673.13;5155243;28;20123;-69
2021/09/02 08:29:48;;;;;;;18.13;8.73;;;;;;;18.49;100.00;102673.75;5160487;28;20039;-68
2021/09/02 08:43:04;;;;;;;15.23;8.15;;;;;;;18.53;100.00;102676.97;4995774;24;20061;-68
2021/09/02 08:49:05;;;;;;;13.10;8.90;;;;;;;18.48;100.00;102678.19;4918763;30;20041;-67
2021/09/02 08:51:36;;;;;;;;;;;;;;;18.78;100.00;102673.78;4919541;30;20081;-66
2021/09/02 08:54:07;;;;;;;14.32;8.82;;;;;;;18.58;100.00;102680.84;4920315;30;20382;-68
2021/09/02 08:56:39;;;;;;;17.23;9.73;;;;;;;18.58;100.00;102680.84;4918445;30;20541;-66
2021/09/02 08:59:10;;;;;;;19.13;10.40;;;;;;;18.51;100.00;102689.50;4915050;30;20072;-67
2021/09/02 09:01:47;;;;;;;15.57;10.13;;;;;;;18.52;100.00;102696.50;4914532;30;20461;-66
2021/09/02 09:04:18;;;;;;;15.27;10.27;;;;;;;18.40;100.00;102687.81;4912630;30;20465;-66
2021/09/02 09:06:51;;;;;;;14.77;9.77;;;;;;;18.47;100.00;102689.78;4919100;30;20059;-66
2021/09/02 09:09:22;;;;;;;14.00;9.38;;;;;;;18.51;100.00;102678.91;4918709;30;20032;-66
2021/09/02 09:11:58;;;;;;;18.30;10.40;;;;;;;18.71;100.00;102675.31;4913989;30;20384;-66
2021/09/02 09:14:31;;;;;;;16.45;10.35;;;;;;;18.91;100.00;102673.50;4908994;30;20466;-66
2021/09/02 09:17:02;;;;;;;17.83;10.27;;;;;;;18.95;100.00;102674.91;4915930;30;20554;-66
2021/09/02 09:19:41;;;;;;;18.17;9.60;;;;;;;18.97;100.00;102662.31;4916092;30;20094;-66
2021/09/02 09:22:13;;;;;;;16.15;10.48;;;;;;;18.98;100.00;102673.78;4917828;30;20033;-66
2021/09/02 09:24:50;;;;;;;15.75;9.90;;;;;;;19.17;100.00;102676.44;4918393;30;20437;-66
2021/09/02 09:27:36;;;;;;;18.27;10.10;;;;;;;19.20;100.00;102676.97;4918865;30;20036;-66
2021/09/02 09:30:13;;;;;;;16.10;10.15;;;;;;;19.14;100.00;102680.19;4917713;30;20500;-66
2021/09/02 09:32:57;;;;;;;16.33;9.65;;;;;;;19.19;100.00;102677.13;4917861;30;20064;-68
2021/09/02 09:35:34;;;;;;;18.77;10.52;;;;;;;19.03;100.00;102672.38;4916700;30;20467;-66
2021/09/02 09:38:11;;;;;;;17.98;10.20;;;;;;;19.06;100.00;102671.28;4916127;30;20045;-67
2021/09/02 09:40:49;;;;;;;19.73;11.13;;;;;;;19.03;100.00;102668.88;4919640;30;20033;-66
2021/09/02 09:43:24;;;;;;;15.93;10.77;;;;;;;19.11;100.00;102663.72;4916003;30;20057;-66
2021/09/02 09:45:57;;;;;;;15.77;10.73;;;;;;;19.19;100.00;102661.16;4915151;30;20140;-66
2021/09/02 09:48:35;;;;;;;15.82;10.63;;;;;;;19.30;100.00;102663.66;4914888;30;20033;-66
2021/09/02 09:51:17;;;;;;;13.50;9.77;;;;;;;19.33;100.00;102659.91;4904381;30;20052;-66
2021/09/02 09:53:51;;;;;;;17.40;10.63;;;;;;;19.33;100.00;102663.38;4903295;30;20056;-66
2021/09/02 09:56:24;;;;;;;17.20;10.27;;;;;;;19.38;100.00;102660.28;4897287;30;20039;-70
2021/09/02 09:58:55;;;;;;;13.38;10.35;;;;;;;19.38;100.00;102663.78;4896359;30;20043;-67
2021/09/02 10:01:27;;;;;;;15.47;10.80;;;;;;;19.39;100.00;102668.13;4899360;30;20400;-67
2021/09/02 10:03:59;;;;;;;15.50;10.33;;;;;;;19.41;100.00;102668.00;4903816;30;20029;-67
2021/09/02 10:06:33;;;;;;;13.57;9.32;;;;;;;19.50;100.00;102663.63;4905707;30;20052;-67
2021/09/02 10:09:05;;;;;;;15.43;9.80;;;;;;;19.67;100.00;102655.75;4905498;30;20021;-67
2021/09/02 10:11:36;;;;;;;16.93;10.60;;;;;;;19.75;100.00;102663.00;4906390;30;21154;-68
2021/09/02 10:14:08;;;;;;;17.97;10.47;;;;;;;19.96;100.00;102656.59;4903953;30;20044;-67
2021/09/02 10:16:39;;;;;;;15.00;9.20;;;;;;;19.85;100.00;102658.50;4902189;30;20523;-67
2021/09/02 10:19:11;;;;;;;14.37;8.90;;;;;;;20.03;100.00;102647.06;4900570;30;20112;-67
2021/09/02 10:21:43;;;;;;;13.43;9.37;;;;;;;20.17;100.00;102649.22;4904396;30;20044;-67
2021/09/02 10:24:30;;;;;;;14.53;9.47;;;;;;;20.36;100.00;102650.91;4905732;30;20039;-67
2021/09/02 10:27:26;;;;;;;16.50;9.90;;;;;;;20.38;100.00;102648.94;4904639;30;20056;-67
2021/09/02 10:29:57;;;;;;;14.60;9.73;;;;;;;20.18;100.00;102648.22;4897636;30;20445;-67
2021/09/02 10:32:29;;;;;;;16.13;9.70;;;;;;;20.02;100.00;102651.53;4904245;30;20052;-67
2021/09/02 10:35:06;;;;;;;17.37;10.03;;;;;;;20.01;100.00;102649.03;4905155;30;20069;-67
2021/09/02 10:37:37;;;;;;;19.70;9.48;;;;;;;20.02;100.00;102642.72;4901881;30;20055;-68
2021/09/02 10:40:18;;;;;;;13.10;9.80;;;;;;;20.03;100.00;102639.06;4904421;30;20594;-67
2021/09/02 10:42:52;;;;;;;16.70;10.27;;;;;;;20.01;100.00;102643.72;4902987;30;20143;-68
2021/09/02 10:45:26;;;;;;;14.30;10.45;;;;;;;19.96;100.00;102638.81;4904558;30;20032;-68
2021/09/02 10:48:04;;;;;;;16.08;9.93;;;;;;;20.07;100.00;102635.13;4903729;30;20576;-68
2021/09/02 10:50:43;;;;;;;16.13;10.57;;;;;;;20.14;100.00;102628.22;4904045;30;20029;-67
2021/09/02 10:53:19;;;;;;;15.05;9.95;;;;;;;20.31;100.00;102632.75;4904306;30;20090;-67
2021/09/02 10:55:52;;;;;;;15.85;10.95;;;;;;;20.63;100.00;102629.56;4901050;30;20041;-67
2021/09/02 10:58:50;;;;;;;13.95;8.80;;;;;;;20.88;100.00;102629.78;4905207;30;20964;-67
2021/09/02 11:01:21;;;;;;;15.02;10.07;;;;;;;20.60;99.12;102627.22;4902332;30;20507;-67
2021/09/02 11:03:57;;;;;;;12.80;9.80;;;;;;;20.60;100.00;102627.22;4903172;30;20357;-67
2021/09/02 11:06:29;;;;;;;15.77;9.98;;;;;;;20.52;98.81;102621.81;4904916;30;20044;-67
2021/09/02 11:09:02;;;;;;;13.23;8.60;;;;;;;20.77;100.00;102619.38;4902572;30;20483;-67
2021/09/02 11:11:33;;;;;;;15.20;8.27;;;;;;;20.83;100.00;102618.75;4903645;30;20188;-67
2021/09/02 11:14:12;;;;;;;15.30;9.30;;;;;;;20.93;100.00;102621.34;4899441;30;20487;-68
2021/09/02 11:16:43;;;;;;;13.10;9.15;;;;;;;21.05;98.87;102620.91;4903601;30;20051;-67
2021/09/02 11:19:32;;;;;;;13.90;9.60;;;;;;;21.42;98.84;102609.19;4898468;30;20488;-68
2021/09/02 11:22:17;;;;;;;15.65;9.20;;;;;;;21.74;98.30;102615.66;4904321;30;20092;-68
2021/09/02 11:24:51;;;;;;;11.82;8.80;;;;;;;21.73;94.73;102614.81;4904100;30;20045;-67
2021/09/02 11:27:30;;;;;;;13.65;8.82;;;;;;;21.67;94.59;102617.28;4903647;30;20036;-67
2021/09/02 11:30:12;;;;;;;12.27;8.23;;;;;;;21.69;94.91;102621.47;4902298;30;20045;-67
2021/09/02 11:32:50;;;;;;;16.35;9.25;;;;;;;21.67;94.51;102610.16;4905187;30;20033;-67
2021/09/02 11:35:22;;;;;;;12.40;8.85;;;;;;;21.49;94.28;102610.22;4904969;30;20021;-67
2021/09/02 11:37:53;;;;;;;15.93;9.10;;;;;;;21.43;95.50;102604.69;4903249;30;20037;-67
2021/09/02 11:40:32;;;;;;;12.40;9.30;;;;;;;21.42;96.90;102598.53;4903726;30;20555;-67
2021/09/02 11:43:15;;;;;;;12.90;9.55;;;;;;;21.35;96.64;102595.66;4901495;30;20053;-67